sensor_id;sensor_type;location;lat;lon;timestamp;pressure;altitude;pressure_sealevel;temperature;humidity
43838;BME280;65998;46.256;7.534;2024-02-26T00:01:43;85426.56;;;3.14;59.70
43838;BME280;65998;46.256;7.534;2024-02-26T00:04:09;85420.41;;;3.20;59.24
43838;BME280;65998;46.256;7.534;2024-02-26T00:06:35;85414.94;;;3.24;59.55
43838;BME280;65998;46.256;7.534;2024-02-26T00:09:01;85412.94;;;3.20;59.75
43838;BME280;65998;46.256;7.534;2024-02-26T00:11:27;85413.63;;;3.19;59.74
43838;BME280;65998;46.256;7.534;2024-02-26T00:13:53;85414.97;;;3.20;60.19
43838;BME280;65998;46.256;7.534;2024-02-26T00:16:19;85413.59;;;3.23;59.82
43838;BME280;65998;46.256;7.534;2024-02-26T00:18:45;85410.91;;;3.21;60.08
43838;BME280;65998;46.256;7.534;2024-02-26T00:21:11;85412.25;;;3.22;60.46
43838;BME280;65998;46.256;7.534;2024-02-26T00:23:37;85402.78;;;3.19;60.48
43838;BME280;65998;46.256;7.534;2024-02-26T00:26:03;85398.75;;;3.12;60.14
43838;BME280;65998;46.256;7.534;2024-02-26T00:28:28;85398.06;;;3.15;60.21
43838;BME280;65998;46.256;7.534;2024-02-26T00:30:54;85395.97;;;3.20;60.26
43838;BME280;65998;46.256;7.534;2024-02-26T00:33:20;85402.81;;;3.17;59.94
43838;BME280;65998;46.256;7.534;2024-02-26T00:35:46;85395.28;;;3.22;59.43
43838;BME280;65998;46.256;7.534;2024-02-26T00:38:12;85389.22;;;3.19;59.24
43838;BME280;65998;46.256;7.534;2024-02-26T00:40:38;85395.31;;;3.19;59.38
43838;BME280;65998;46.256;7.534;2024-02-26T00:43:03;85387.91;;;3.12;61.03
43838;BME280;65998;46.256;7.534;2024-02-26T00:45:29;85392.69;;;3.09;61.17
43838;BME280;65998;46.256;7.534;2024-02-26T00:47:55;85380.47;;;3.10;60.67
43838;BME280;65998;46.256;7.534;2024-02-26T00:50:21;85378.41;;;3.13;60.88
43838;BME280;65998;46.256;7.534;2024-02-26T00:52:46;85373.00;;;3.11;60.87
43838;BME280;65998;46.256;7.534;2024-02-26T00:55:12;85372.31;;;3.10;60.88
43838;BME280;65998;46.256;7.534;2024-02-26T00:57:38;85371.66;;;3.10;60.43
43838;BME280;65998;46.256;7.534;2024-02-26T01:00:05;85372.31;;;3.12;60.73
43838;BME280;65998;46.256;7.534;2024-02-26T01:02:30;85364.94;;;3.03;62.74
43838;BME280;65998;46.256;7.534;2024-02-26T01:04:56;85360.16;;;3.05;62.07
43838;BME280;65998;46.256;7.534;2024-02-26T01:07:22;85362.22;;;3.03;61.45
43838;BME280;65998;46.256;7.534;2024-02-26T01:09:48;85349.34;;;3.01;60.77
43838;BME280;65998;46.256;7.534;2024-02-26T01:12:14;85355.44;;;3.02;58.61
43838;BME280;65998;46.256;7.534;2024-02-26T01:14:40;85358.84;;;3.02;57.93
43838;BME280;65998;46.256;7.534;2024-02-26T01:17:05;85360.16;;;3.05;57.18
43838;BME280;65998;46.256;7.534;2024-02-26T01:19:31;85353.38;;;3.04;58.87
43838;BME280;65998;46.256;7.534;2024-02-26T01:21:57;85348.59;;;3.07;58.29
43838;BME280;65998;46.256;7.534;2024-02-26T01:24:23;85346.53;;;3.09;58.98
43838;BME280;65998;46.256;7.534;2024-02-26T01:26:49;85346.53;;;3.09;59.74
43838;BME280;65998;46.256;7.534;2024-02-26T01:29:15;85334.34;;;3.08;60.65
43838;BME280;65998;46.256;7.534;2024-02-26T01:31:40;85341.88;;;3.02;62.14
43838;BME280;65998;46.256;7.534;2024-02-26T01:34:06;85340.72;;;2.84;64.84
43838;BME280;65998;46.256;7.534;2024-02-26T01:36:32;85336.63;;;2.85;64.54
43838;BME280;65998;46.256;7.534;2024-02-26T01:38:58;85335.97;;;2.85;64.03
43838;BME280;65998;46.256;7.534;2024-02-26T01:41:24;85331.22;;;2.83;64.25
43838;BME280;65998;46.256;7.534;2024-02-26T01:43:50;85333.97;;;2.81;62.04
43838;BME280;65998;46.256;7.534;2024-02-26T01:46:16;85333.22;;;2.87;61.61
43838;BME280;65998;46.256;7.534;2024-02-26T01:48:43;85328.44;;;2.92;60.81
43838;BME280;65998;46.256;7.534;2024-02-26T01:51:12;85331.03;;;3.02;61.58
43838;BME280;65998;46.256;7.534;2024-02-26T01:53:40;85337.16;;;2.98;60.64
43838;BME280;65998;46.256;7.534;2024-02-26T01:56:06;85330.34;;;3.01;60.68
43838;BME280;65998;46.256;7.534;2024-02-26T01:58:34;85333.81;;;2.96;60.98
43838;BME280;65998;46.256;7.534;2024-02-26T02:01:01;85331.69;;;3.02;60.49
43838;BME280;65998;46.256;7.534;2024-02-26T02:03:28;85324.19;;;3.07;60.47
43838;BME280;65998;46.256;7.534;2024-02-26T02:05:54;85321.47;;;3.07;60.58
43838;BME280;65998;46.256;7.534;2024-02-26T02:08:21;85330.25;;;3.11;59.78
43838;BME280;65998;46.256;7.534;2024-02-26T02:10:48;85328.19;;;3.12;60.04
43838;BME280;65998;46.256;7.534;2024-02-26T02:13:14;85322.09;;;3.11;60.60
43838;BME280;65998;46.256;7.534;2024-02-26T02:15:41;85322.84;;;3.06;60.76
43838;BME280;65998;46.256;7.534;2024-02-26T02:18:08;85328.19;;;3.12;61.05
43838;BME280;65998;46.256;7.534;2024-02-26T02:20:34;85331.59;;;3.14;60.96
43838;BME280;65998;46.256;7.534;2024-02-26T02:23:01;85325.50;;;3.10;60.43
43838;BME280;65998;46.256;7.534;2024-02-26T02:25:27;85332.94;;;3.15;60.01
43838;BME280;65998;46.256;7.534;2024-02-26T02:27:54;85325.41;;;3.20;59.58
43838;BME280;65998;46.256;7.534;2024-02-26T02:30:26;85323.41;;;3.18;59.57
43838;BME280;65998;46.256;7.534;2024-02-26T02:32:53;85335.63;;;3.17;60.07
43838;BME280;65998;46.256;7.534;2024-02-26T02:35:20;85331.53;;;3.18;59.76
43838;BME280;65998;46.256;7.534;2024-02-26T02:37:46;85332.13;;;3.25;59.44
43838;BME280;65998;46.256;7.534;2024-02-26T02:40:12;85325.38;;;3.24;59.82
43838;BME280;65998;46.256;7.534;2024-02-26T02:42:38;85325.38;;;3.22;59.62
43838;BME280;65998;46.256;7.534;2024-02-26T02:45:04;85331.56;;;3.16;59.73
43838;BME280;65998;46.256;7.534;2024-02-26T02:47:30;85334.97;;;3.15;59.96
43838;BME280;65998;46.256;7.534;2024-02-26T02:49:56;85336.31;;;3.16;59.96
43838;BME280;65998;46.256;7.534;2024-02-26T02:52:22;85318.06;;;3.08;62.04
43838;BME280;65998;46.256;7.534;2024-02-26T02:54:48;85322.13;;;3.09;61.41
43838;BME280;65998;46.256;7.534;2024-02-26T02:57:14;85324.84;;;3.07;61.77
43838;BME280;65998;46.256;7.534;2024-02-26T02:59:40;85324.91;;;3.03;61.53
43838;BME280;65998;46.256;7.534;2024-02-26T03:02:06;85320.97;;;2.90;62.10
43838;BME280;65998;46.256;7.534;2024-02-26T03:04:32;85320.25;;;2.96;60.48
43838;BME280;65998;46.256;7.534;2024-02-26T03:06:58;85312.03;;;3.02;59.85
43838;BME280;65998;46.256;7.534;2024-02-26T03:09:24;85321.53;;;3.03;59.52
43838;BME280;65998;46.256;7.534;2024-02-26T03:11:50;85314.09;;;2.99;59.11
43838;BME280;65998;46.256;7.534;2024-02-26T03:14:15;85318.19;;;2.98;59.34
43838;BME280;65998;46.256;7.534;2024-02-26T03:16:41;85304.69;;;2.92;59.67
43838;BME280;65998;46.256;7.534;2024-02-26T03:19:07;85303.38;;;2.87;58.91
43838;BME280;65998;46.256;7.534;2024-02-26T03:21:33;85302.69;;;2.88;60.13
43838;BME280;65998;46.256;7.534;2024-02-26T03:23:59;85297.91;;;2.91;59.82
43838;BME280;65998;46.256;7.534;2024-02-26T03:26:25;85289.78;;;2.91;59.53
43838;BME280;65998;46.256;7.534;2024-02-26T03:28:50;85290.47;;;2.89;60.09
43838;BME280;65998;46.256;7.534;2024-02-26T03:31:16;85294.53;;;2.91;60.75
43838;BME280;65998;46.256;7.534;2024-02-26T03:33:42;85297.25;;;2.91;62.09
43838;BME280;65998;46.256;7.534;2024-02-26T03:36:08;85289.81;;;2.87;63.21
43838;BME280;65998;46.256;7.534;2024-02-26T03:38:33;85295.91;;;2.89;63.63
43838;BME280;65998;46.256;7.534;2024-02-26T03:40:59;85291.22;;;2.84;64.32
43838;BME280;65998;46.256;7.534;2024-02-26T03:43:25;85296.66;;;2.82;64.39
43838;BME280;65998;46.256;7.534;2024-02-26T03:45:51;85295.97;;;2.81;64.52
43838;BME280;65998;46.256;7.534;2024-02-26T03:48:17;85283.81;;;2.78;65.53
43838;BME280;65998;46.256;7.534;2024-02-26T03:50:43;85289.91;;;2.79;65.39
43838;BME280;65998;46.256;7.534;2024-02-26T03:53:08;85296.69;;;2.80;65.31
43838;BME280;65998;46.256;7.534;2024-02-26T03:55:35;85293.94;;;2.82;64.97
43838;BME280;65998;46.256;7.534;2024-02-26T03:58:00;85300.03;;;2.84;65.71
43838;BME280;65998;46.256;7.534;2024-02-26T04:00:26;85290.50;;;2.85;66.71
43838;BME280;65998;46.256;7.534;2024-02-26T04:02:52;85285.06;;;2.87;66.72
43838;BME280;65998;46.256;7.534;2024-02-26T04:05:18;85285.72;;;2.90;66.11
43838;BME280;65998;46.256;7.534;2024-02-26T04:07:44;85287.09;;;2.89;67.69
43838;BME280;65998;46.256;7.534;2024-02-26T04:10:10;85285.13;;;2.83;67.12
43838;BME280;65998;46.256;7.534;2024-02-26T04:12:41;85279.66;;;2.85;67.19
43838;BME280;65998;46.256;7.534;2024-02-26T04:15:09;85284.44;;;2.83;66.40
43838;BME280;65998;46.256;7.534;2024-02-26T04:17:36;85289.78;;;2.89;64.59
43838;BME280;65998;46.256;7.534;2024-02-26T04:20:03;85289.03;;;2.97;64.36
43838;BME280;65998;46.256;7.534;2024-02-26T04:22:29;85285.53;;;3.04;63.99
43838;BME280;65998;46.256;7.534;2024-02-26T04:24:55;85282.16;;;3.04;64.27
43838;BME280;65998;46.256;7.534;2024-02-26T04:27:21;85289.59;;;3.07;64.00
43838;BME280;65998;46.256;7.534;2024-02-26T04:29:47;85286.84;;;3.09;64.29
43838;BME280;65998;46.256;7.534;2024-02-26T04:32:12;85289.53;;;3.11;64.61
43838;BME280;65998;46.256;7.534;2024-02-26T04:34:38;85289.53;;;3.11;64.71
43838;BME280;65998;46.256;7.534;2024-02-26T04:37:04;85292.25;;;3.11;64.92
43838;BME280;65998;46.256;7.534;2024-02-26T04:39:30;85289.50;;;3.15;63.86
43838;BME280;65998;46.256;7.534;2024-02-26T04:41:56;85283.44;;;3.13;64.15
43838;BME280;65998;46.256;7.534;2024-02-26T04:44:22;85285.44;;;3.14;63.93
43838;BME280;65998;46.256;7.534;2024-02-26T04:46:47;85289.50;;;3.17;63.27
43838;BME280;65998;46.256;7.534;2024-02-26T04:49:13;85291.44;;;3.23;63.65
43838;BME280;65998;46.256;7.534;2024-02-26T04:51:39;85291.44;;;3.23;62.92
43838;BME280;65998;46.256;7.534;2024-02-26T04:54:05;85302.81;;;3.36;62.22
43838;BME280;65998;46.256;7.534;2024-02-26T04:56:30;85304.13;;;3.41;62.78
43838;BME280;65998;46.256;7.534;2024-02-26T04:58:56;85304.81;;;3.39;63.62
43838;BME280;65998;46.256;7.534;2024-02-26T05:01:22;85300.19;;;3.30;63.30
43838;BME280;65998;46.256;7.534;2024-02-26T05:03:49;85304.97;;;3.27;63.42
43838;BME280;65998;46.256;7.534;2024-02-26T05:06:15;85306.34;;;3.26;63.32
43838;BME280;65998;46.256;7.534;2024-02-26T05:08:42;85324.56;;;3.34;63.56
43838;BME280;65998;46.256;7.534;2024-02-26T05:11:07;85317.09;;;3.34;62.88
43838;BME280;65998;46.256;7.534;2024-02-26T05:13:33;85315.09;;;3.33;62.45
43838;BME280;65998;46.256;7.534;2024-02-26T05:15:59;85323.19;;;3.37;62.64
43838;BME280;65998;46.256;7.534;2024-02-26T05:18:25;85317.00;;;3.42;62.48
43838;BME280;65998;46.256;7.534;2024-02-26T05:20:51;85321.03;;;3.45;62.38
43838;BME280;65998;46.256;7.534;2024-02-26T05:23:17;85316.31;;;3.44;62.46
43838;BME280;65998;46.256;7.534;2024-02-26T05:25:42;85323.81;;;3.41;62.71
43838;BME280;65998;46.256;7.534;2024-02-26T05:28:08;85325.16;;;3.40;63.24
43838;BME280;65998;46.256;7.534;2024-02-26T05:30:34;85321.81;;;3.38;63.41
43838;BME280;65998;46.256;7.534;2024-02-26T05:33:00;85325.22;;;3.36;63.55
43838;BME280;65998;46.256;7.534;2024-02-26T05:35:26;85325.31;;;3.28;63.92
43838;BME280;65998;46.256;7.534;2024-02-26T05:37:52;85324.66;;;3.26;64.80
43838;BME280;65998;46.256;7.534;2024-02-26T05:40:17;85334.19;;;3.25;64.30
43838;BME280;65998;46.256;7.534;2024-02-26T05:42:43;85339.63;;;3.23;64.09
43838;BME280;65998;46.256;7.534;2024-02-26T05:45:09;85340.31;;;3.23;64.18
43838;BME280;65998;46.256;7.534;2024-02-26T05:47:35;85335.56;;;3.22;65.04
43838;BME280;65998;46.256;7.534;2024-02-26T05:50:02;85329.44;;;3.23;65.12
43838;BME280;65998;46.256;7.534;2024-02-26T05:52:28;85330.84;;;3.20;64.99
43838;BME280;65998;46.256;7.534;2024-02-26T05:54:53;85326.13;;;3.16;65.04
43838;BME280;65998;46.256;7.534;2024-02-26T05:57:19;85327.47;;;3.19;65.14
43838;BME280;65998;46.256;7.534;2024-02-26T05:59:45;85332.22;;;3.19;65.37
43838;BME280;65998;46.256;7.534;2024-02-26T06:02:11;85334.94;;;3.19;65.34
43838;BME280;65998;46.256;7.534;2024-02-26T06:04:37;85333.59;;;3.18;66.09
43838;BME280;65998;46.256;7.534;2024-02-26T06:07:03;85340.38;;;3.17;65.85
43838;BME280;65998;46.256;7.534;2024-02-26T06:09:28;85334.97;;;3.15;66.23
43838;BME280;65998;46.256;7.534;2024-02-26T06:11:54;85341.06;;;3.15;66.41
43838;BME280;65998;46.256;7.534;2024-02-26T06:14:20;85347.19;;;3.16;66.70
43838;BME280;65998;46.256;7.534;2024-02-26T06:16:46;85358.06;;;3.14;66.61
43838;BME280;65998;46.256;7.534;2024-02-26T06:19:12;85356.75;;;3.07;67.58
43838;BME280;65998;46.256;7.534;2024-02-26T06:21:38;85359.47;;;3.05;67.95
43838;BME280;65998;46.256;7.534;2024-02-26T06:24:04;85358.13;;;3.06;67.64
43838;BME280;65998;46.256;7.534;2024-02-26T06:26:30;85353.38;;;3.06;67.76
43838;BME280;65998;46.256;7.534;2024-02-26T06:28:55;85355.38;;;3.08;67.90
43838;BME280;65998;46.256;7.534;2024-02-26T06:31:22;85356.69;;;3.11;68.16
43838;BME280;65998;46.256;7.534;2024-02-26T06:33:49;85352.03;;;3.05;67.41
43838;BME280;65998;46.256;7.534;2024-02-26T06:36:18;85349.31;;;3.05;67.59
43838;BME280;65998;46.256;7.534;2024-02-26T06:38:43;85350.63;;;3.08;67.15
43838;BME280;65998;46.256;7.534;2024-02-26T06:41:09;85357.38;;;3.13;66.93
43838;BME280;65998;46.256;7.534;2024-02-26T06:43:35;85356.72;;;3.13;67.71
43838;BME280;65998;46.256;7.534;2024-02-26T06:46:01;85355.34;;;3.14;68.27
43838;BME280;65998;46.256;7.534;2024-02-26T06:48:27;85358.66;;;3.20;68.51
43838;BME280;65998;46.256;7.534;2024-02-26T06:50:52;85357.22;;;3.28;68.09
43838;BME280;65998;46.256;7.534;2024-02-26T06:53:18;85365.34;;;3.30;68.46
43838;BME280;65998;46.256;7.534;2024-02-26T06:55:44;85357.84;;;3.32;69.38
43838;BME280;65998;46.256;7.534;2024-02-26T06:58:10;85355.03;;;3.40;69.24
43838;BME280;65998;46.256;7.534;2024-02-26T07:00:36;85350.22;;;3.45;69.08
43838;BME280;65998;46.256;7.534;2024-02-26T07:03:01;85358.34;;;3.47;69.97
43838;BME280;65998;46.256;7.534;2024-02-26T07:05:28;85362.34;;;3.54;69.59
43838;BME280;65998;46.256;7.534;2024-02-26T07:07:54;85365.06;;;3.54;69.59
43838;BME280;65998;46.256;7.534;2024-02-26T07:10:20;85354.81;;;3.59;69.83
43838;BME280;65998;46.256;7.534;2024-02-26T07:12:45;85361.56;;;3.62;69.14
43838;BME280;65998;46.256;7.534;2024-02-26T07:15:11;85358.84;;;3.62;69.38
43838;BME280;65998;46.256;7.534;2024-02-26T07:17:37;85356.81;;;3.60;70.19
43838;BME280;65998;46.256;7.534;2024-02-26T07:20:03;85348.63;;;3.64;69.67
43838;BME280;65998;46.256;7.534;2024-02-26T07:22:29;85350.56;;;3.72;70.10
43838;BME280;65998;46.256;7.534;2024-02-26T07:24:55;85349.81;;;3.77;70.20
43838;BME280;65998;46.256;7.534;2024-02-26T07:27:21;85348.94;;;3.91;70.24
43838;BME280;65998;46.256;7.534;2024-02-26T07:29:47;85360.41;;;3.98;69.58
43838;BME280;65998;46.256;7.534;2024-02-26T07:32:13;85362.41;;;3.99;69.67
43838;BME280;65998;46.256;7.534;2024-02-26T07:34:39;85365.06;;;4.05;69.80
43838;BME280;65998;46.256;7.534;2024-02-26T07:37:04;85371.72;;;4.16;69.11
43838;BME280;65998;46.256;7.534;2024-02-26T07:39:30;85370.09;;;4.34;67.90
43838;BME280;65998;46.256;7.534;2024-02-26T07:41:56;85382.81;;;4.47;67.05
43838;BME280;65998;46.256;7.534;2024-02-26T07:44:22;85367.75;;;4.55;63.88
43838;BME280;65998;46.256;7.534;2024-02-26T07:46:48;85364.88;;;4.65;62.31
43838;BME280;65998;46.256;7.534;2024-02-26T07:49:14;85364.78;;;4.71;62.22
43838;BME280;65998;46.256;7.534;2024-02-26T07:51:39;85359.97;;;4.73;61.86
43838;BME280;65998;46.256;7.534;2024-02-26T07:54:05;85355.78;;;4.80;61.33
43838;BME280;65998;46.256;7.534;2024-02-26T07:56:31;85368.69;;;4.80;59.89
43838;BME280;65998;46.256;7.534;2024-02-26T07:58:57;85367.94;;;4.86;59.71
43838;BME280;65998;46.256;7.534;2024-02-26T08:01:23;85359.06;;;4.87;59.90
43838;BME280;65998;46.256;7.534;2024-02-26T08:03:49;85359.00;;;4.91;59.77
43838;BME280;65998;46.256;7.534;2024-02-26T08:06:16;85353.47;;;4.95;60.07
43838;BME280;65998;46.256;7.534;2024-02-26T08:08:42;85361.59;;;4.97;59.94
43838;BME280;65998;46.256;7.534;2024-02-26T08:11:08;85357.53;;;4.96;60.29
43838;BME280;65998;46.256;7.534;2024-02-26T08:13:34;85349.28;;;5.02;60.38
43838;BME280;65998;46.256;7.534;2024-02-26T08:15:59;85350.50;;;5.09;59.91
43838;BME280;65998;46.256;7.534;2024-02-26T08:18:25;85355.16;;;5.15;58.84
43838;BME280;65998;46.256;7.534;2024-02-26T08:20:51;85347.66;;;5.16;57.93
43838;BME280;65998;46.256;7.534;2024-02-26T08:23:17;85344.72;;;5.30;58.27
43838;BME280;65998;46.256;7.534;2024-02-26T08:25:43;85340.53;;;5.35;58.76
43838;BME280;65998;46.256;7.534;2024-02-26T08:28:09;85343.81;;;5.41;58.63
43838;BME280;65998;46.256;7.534;2024-02-26T08:30:34;85344.44;;;5.44;58.20
43838;BME280;65998;46.256;7.534;2024-02-26T08:33:00;85331.34;;;5.53;57.72
43838;BME280;65998;46.256;7.534;2024-02-26T08:35:26;85332.59;;;5.58;57.49
43838;BME280;65998;46.256;7.534;2024-02-26T08:37:52;85337.72;;;5.74;58.46
43838;BME280;65998;46.256;7.534;2024-02-26T08:40:18;85329.25;;;5.88;57.88
43838;BME280;65998;46.256;7.534;2024-02-26T08:42:44;85329.63;;;6.05;57.36
43838;BME280;65998;46.256;7.534;2024-02-26T08:45:09;85320.38;;;6.23;56.29
43838;BME280;65998;46.256;7.534;2024-02-26T08:47:35;85316.75;;;6.32;56.90
43838;BME280;65998;46.256;7.534;2024-02-26T08:50:01;85316.22;;;6.26;55.96
43838;BME280;65998;46.256;7.534;2024-02-26T08:52:27;85318.88;;;6.30;56.58
43838;BME280;65998;46.256;7.534;2024-02-26T08:54:53;85318.28;;;6.25;55.41
43838;BME280;65998;46.256;7.534;2024-02-26T08:57:18;85319.13;;;6.49;54.73
43838;BME280;65998;46.256;7.534;2024-02-26T08:59:44;85305.78;;;6.65;54.59
43838;BME280;65998;46.256;7.534;2024-02-26T09:02:10;85314.25;;;7.09;54.14
43838;BME280;65998;46.256;7.534;2024-02-26T09:04:36;85321.09;;;7.62;53.01
43838;BME280;65998;46.256;7.534;2024-02-26T09:07:02;85321.72;;;8.14;52.64
43838;BME280;65998;46.256;7.534;2024-02-26T09:09:28;85328.16;;;8.75;52.38
43838;BME280;65998;46.256;7.534;2024-02-26T09:11:54;85321.63;;;9.31;49.83
43838;BME280;65998;46.256;7.534;2024-02-26T09:14:19;85325.44;;;9.81;48.88
43838;BME280;65998;46.256;7.534;2024-02-26T09:16:45;85323.16;;;10.28;46.11
43838;BME280;65998;46.256;7.534;2024-02-26T09:19:12;85320.13;;;10.73;46.02
43838;BME280;65998;46.256;7.534;2024-02-26T09:21:42;85328.19;;;11.32;45.44
43838;BME280;65998;46.256;7.534;2024-02-26T09:24:08;85317.06;;;12.20;42.90
43838;BME280;65998;46.256;7.534;2024-02-26T09:26:34;85323.97;;;12.35;42.70
43838;BME280;65998;46.256;7.534;2024-02-26T09:29:00;85319.06;;;12.21;41.55
43838;BME280;65998;46.256;7.534;2024-02-26T09:31:26;85326.78;;;12.50;42.98
43838;BME280;65998;46.256;7.534;2024-02-26T09:33:51;85332.03;;;12.39;42.86
43838;BME280;65998;46.256;7.534;2024-02-26T09:36:17;85333.63;;;12.51;43.26
43838;BME280;65998;46.256;7.534;2024-02-26T09:38:43;85339.72;;;12.37;41.75
43838;BME280;65998;46.256;7.534;2024-02-26T09:41:14;85341.16;;;11.52;42.03
43838;BME280;65998;46.256;7.534;2024-02-26T09:43:43;85338.56;;;11.12;42.18
43838;BME280;65998;46.256;7.534;2024-02-26T09:46:10;85340.09;;;10.72;43.06
43838;BME280;65998;46.256;7.534;2024-02-26T09:48:37;85349.31;;;10.45;43.67
43838;BME280;65998;46.256;7.534;2024-02-26T09:51:04;85357.38;;;10.10;43.52
43838;BME280;65998;46.256;7.534;2024-02-26T09:53:30;85358.31;;;10.02;44.38
43838;BME280;65998;46.256;7.534;2024-02-26T09:55:58;85362.56;;;9.78;44.52
43838;BME280;65998;46.256;7.534;2024-02-26T09:58:25;85366.59;;;9.40;44.78
43838;BME280;65998;46.256;7.534;2024-02-26T10:00:56;85362.75;;;9.31;45.66
43838;BME280;65998;46.256;7.534;2024-02-26T10:03:25;85374.38;;;9.31;46.45
43838;BME280;65998;46.256;7.534;2024-02-26T10:05:53;85359.91;;;9.12;47.27
43838;BME280;65998;46.256;7.534;2024-02-26T10:08:18;85357.56;;;9.20;46.87
43838;BME280;65998;46.256;7.534;2024-02-26T10:10:45;85361.63;;;9.44;45.22
43838;BME280;65998;46.256;7.534;2024-02-26T10:13:11;85360.38;;;9.62;45.73
43838;BME280;65998;46.256;7.534;2024-02-26T10:15:37;85356.63;;;9.72;45.89
43838;BME280;65998;46.256;7.534;2024-02-26T10:18:06;85359.03;;;9.82;46.13
43838;BME280;65998;46.256;7.534;2024-02-26T10:20:32;85357.41;;;9.89;46.36
43838;BME280;65998;46.256;7.534;2024-02-26T10:23:02;85360.69;;;9.93;45.97
43838;BME280;65998;46.256;7.534;2024-02-26T10:25:28;85355.63;;;10.21;44.86
43838;BME280;65998;46.256;7.534;2024-02-26T10:27:54;85346.50;;;10.66;44.99
43838;BME280;65998;46.256;7.534;2024-02-26T10:30:21;85342.75;;;10.93;44.19
43838;BME280;65998;46.256;7.534;2024-02-26T10:32:48;85336.91;;;10.65;41.06
43838;BME280;65998;46.256;7.534;2024-02-26T10:35:15;85341.22;;;10.79;42.28
43838;BME280;65998;46.256;7.534;2024-02-26T10:37:41;85335.88;;;10.75;44.22
43838;BME280;65998;46.256;7.534;2024-02-26T10:40:11;85347.38;;;10.79;43.96
43838;BME280;65998;46.256;7.534;2024-02-26T10:42:37;85333.28;;;11.06;44.71
43838;BME280;65998;46.256;7.534;2024-02-26T10:45:05;85335.97;;;11.08;42.02
43838;BME280;65998;46.256;7.534;2024-02-26T10:47:31;85339.91;;;11.49;43.33
43838;BME280;65998;46.256;7.534;2024-02-26T10:49:58;85337.50;;;11.58;41.10
43838;BME280;65998;46.256;7.534;2024-02-26T10:52:25;85334.78;;;11.39;42.35
43838;BME280;65998;46.256;7.534;2024-02-26T10:54:54;85334.34;;;11.32;42.53
43838;BME280;65998;46.256;7.534;2024-02-26T10:57:21;85343.16;;;11.54;42.80
43838;BME280;65998;46.256;7.534;2024-02-26T10:59:49;85327.78;;;11.42;41.17
43838;BME280;65998;46.256;7.534;2024-02-26T11:02:20;85335.84;;;11.65;39.15
43838;BME280;65998;46.256;7.534;2024-02-26T11:04:46;85327.66;;;11.46;39.99
43838;BME280;65998;46.256;7.534;2024-02-26T11:07:12;85322.25;;;11.61;41.24
43838;BME280;65998;46.256;7.534;2024-02-26T11:09:40;85326.25;;;11.64;42.16
43838;BME280;65998;46.256;7.534;2024-02-26T11:12:09;85333.09;;;11.81;41.60
43838;BME280;65998;46.256;7.534;2024-02-26T11:14:39;85333.31;;;11.59;40.75
43838;BME280;65998;46.256;7.534;2024-02-26T11:17:07;85328.16;;;11.67;40.72
43838;BME280;65998;46.256;7.534;2024-02-26T11:19:35;85329.91;;;11.58;41.30
43838;BME280;65998;46.256;7.534;2024-02-26T11:22:01;85332.00;;;11.58;41.03
43838;BME280;65998;46.256;7.534;2024-02-26T11:24:28;85325.44;;;11.32;41.46
43838;BME280;65998;46.256;7.534;2024-02-26T11:26:56;85331.41;;;11.19;41.73
43838;BME280;65998;46.256;7.534;2024-02-26T11:29:26;85330.19;;;10.98;42.36
43838;BME280;65998;46.256;7.534;2024-02-26T11:31:53;85320.13;;;10.73;41.94
43838;BME280;65998;46.256;7.534;2024-02-26T11:34:19;85323.91;;;10.64;42.78
43838;BME280;65998;46.256;7.534;2024-02-26T11:36:46;85317.69;;;10.65;43.27
43838;BME280;65998;46.256;7.534;2024-02-26T11:39:12;85316.13;;;10.51;43.38
43838;BME280;65998;46.256;7.534;2024-02-26T11:41:40;85317.47;;;10.52;43.71
43838;BME280;65998;46.256;7.534;2024-02-26T11:44:06;85321.09;;;10.66;43.64
43838;BME280;65998;46.256;7.534;2024-02-26T11:46:32;85324.50;;;10.66;42.44
43838;BME280;65998;46.256;7.534;2024-02-26T11:49:03;85321.75;;;10.66;42.58
43838;BME280;65998;46.256;7.534;2024-02-26T11:51:57;85318.63;;;10.39;42.99
43838;BME280;65998;46.256;7.534;2024-02-26T11:54:49;85313.25;;;10.16;42.93
43838;BME280;65998;46.256;7.534;2024-02-26T11:59:57;85314.03;;;9.93;41.79
43838;BME280;65998;46.256;7.534;2024-02-26T12:02:45;85312.25;;;9.86;43.13
43838;BME280;65998;46.256;7.534;2024-02-26T12:05:20;85302.50;;;9.70;42.60
43838;BME280;65998;46.256;7.534;2024-02-26T12:07:55;85307.81;;;9.55;43.08
43838;BME280;65998;46.256;7.534;2024-02-26T12:10:31;85304.28;;;9.38;43.57
43838;BME280;65998;46.256;7.534;2024-02-26T12:15:23;85294.88;;;9.31;44.83
43838;BME280;65998;46.256;7.534;2024-02-26T12:17:49;85288.25;;;9.24;44.71
43838;BME280;65998;46.256;7.534;2024-02-26T12:20:17;85294.53;;;9.20;44.03
43838;BME280;65998;46.256;7.534;2024-02-26T12:22:46;85295.28;;;8.98;44.78
43838;BME280;65998;46.256;7.534;2024-02-26T12:25:13;85297.88;;;9.02;44.49
43838;BME280;65998;46.256;7.534;2024-02-26T12:27:39;85307.16;;;8.90;45.06
43838;BME280;65998;46.256;7.534;2024-02-26T12:30:05;85309.91;;;8.90;45.23
43838;BME280;65998;46.256;7.534;2024-02-26T12:32:31;85315.13;;;8.99;45.30
43838;BME280;65998;46.256;7.534;2024-02-26T12:34:58;85319.56;;;8.87;45.42
43838;BME280;65998;46.256;7.534;2024-02-26T12:37:24;85319.75;;;8.81;45.21
43838;BME280;65998;46.256;7.534;2024-02-26T12:39:50;85316.72;;;8.69;45.30
43838;BME280;65998;46.256;7.534;2024-02-26T12:42:16;85308.66;;;8.64;45.95
43838;BME280;65998;46.256;7.534;2024-02-26T12:44:42;85307.97;;;8.64;46.58
43838;BME280;65998;46.256;7.534;2024-02-26T12:47:10;85311.75;;;8.52;47.00
43838;BME280;65998;46.256;7.534;2024-02-26T12:49:36;85307.13;;;8.47;46.74
43838;BME280;65998;46.256;7.534;2024-02-26T12:52:02;85308.03;;;8.39;47.13
43838;BME280;65998;46.256;7.534;2024-02-26T12:54:32;85308.22;;;8.31;47.17
43838;BME280;65998;46.256;7.534;2024-02-26T12:57:00;85306.22;;;8.29;47.62
43838;BME280;65998;46.256;7.534;2024-02-26T12:59:27;85303.41;;;8.34;47.62
43838;BME280;65998;46.256;7.534;2024-02-26T13:01:54;85300.69;;;8.31;46.69
43838;BME280;65998;46.256;7.534;2024-02-26T13:04:20;85304.63;;;8.39;46.88
43838;BME280;65998;46.256;7.534;2024-02-26T13:06:46;85308.88;;;8.34;47.42
43838;BME280;65998;46.256;7.534;2024-02-26T13:09:13;85309.50;;;8.36;47.52
43838;BME280;65998;46.256;7.534;2024-02-26T13:11:40;85321.59;;;8.43;47.21